Time;durP1;ratioP1;P1;durP2;ratioP2;P2;SDS_P1;SDS_P2;PMS_P1;PMS_P2;Temp;Humidity;BMP_temperature;BMP_pressure;BME280_temperature;BME280_humidity;BME280_pressure;Samples;Min_cycle;Max_cycle;Signal;HPM_P1;HPM_P2
2022/05/11 00:00:49;;;;;;;4.47;2.40;;;;;;;19.40;45.91;101225.59;5011342;28;20048;-62
2022/05/11 00:03:15;;;;;;;5.35;2.63;;;;;;;19.37;46.34;101218.56;5010711;28;20058;-61
2022/05/11 00:05:41;;;;;;;4.50;2.63;;;;;;;19.34;46.12;101222.03;5011271;28;20050;-61
2022/05/11 00:08:07;;;;;;;5.30;2.55;;;;;;;19.33;46.25;101223.97;5012319;28;20037;-61
2022/05/11 00:10:33;;;;;;;5.55;3.00;;;;;;;19.30;46.20;101213.34;5010482;28;20629;-61
2022/05/11 00:12:59;;;;;;;6.53;2.92;;;;;;;19.27;46.29;101218.72;5012259;28;20042;-61
2022/05/11 00:15:26;;;;;;;7.28;3.00;;;;;;;19.21;46.25;101212.31;5023001;28;20100;-61
2022/05/11 00:17:51;;;;;;;9.77;2.67;;;;;;;19.15;46.16;101207.91;5025216;28;20480;-61
2022/05/11 00:20:18;;;;;;;4.43;2.58;;;;;;;19.14;46.21;101211.88;5018092;28;20037;-61
2022/05/11 00:22:46;;;;;;;3.05;2.75;;;;;;;19.11;46.30;101204.88;5011141;28;20044;-61
2022/05/11 00:25:15;;;;;;;5.38;2.72;;;;;;;19.15;46.13;101199.47;5015406;28;20530;-61
2022/05/11 00:27:41;;;;;;;6.50;2.88;;;;;;;19.14;46.26;101200.63;5003104;28;20037;-62
2022/05/11 00:30:06;;;;;;;3.65;2.47;;;;;;;19.18;45.97;101192.38;5009633;28;20604;-61
2022/05/11 00:32:32;;;;;;;4.57;2.67;;;;;;;19.09;46.24;101181.81;5010262;28;20054;-61
2022/05/11 00:34:57;;;;;;;4.43;2.20;;;;;;;19.16;46.22;101189.88;5009694;28;20744;-61
2022/05/11 00:37:24;;;;;;;6.00;2.80;;;;;;;19.13;46.39;101182.06;5009506;28;20084;-61
2022/05/11 00:39:49;;;;;;;7.28;2.50;;;;;;;19.14;46.16;101186.56;5018451;28;20037;-61
2022/05/11 00:42:15;;;;;;;4.78;2.30;;;;;;;19.10;46.16;101185.50;5009656;28;20018;-61
2022/05/11 00:44:40;;;;;;;3.65;2.50;;;;;;;19.09;45.86;101186.59;5009525;28;20057;-61
2022/05/11 00:47:13;;;;;;;5.47;2.55;;;;;;;19.07;46.01;101180.47;5010877;28;20532;-61
2022/05/11 00:49:52;;;;;;;5.28;2.72;;;;;;;19.19;45.93;101166.78;5008342;28;20037;-61
2022/05/11 00:52:23;;;;;;;8.52;2.80;;;;;;;19.15;46.20;101174.16;5009956;28;20034;-61
2022/05/11 00:55:02;;;;;;;3.30;2.45;;;;;;;19.15;45.97;101173.31;5008333;28;20117;-61
2022/05/11 00:57:44;;;;;;;6.65;2.78;;;;;;;19.10;46.22;101163.81;5010467;28;20033;-61
2022/05/11 01:00:11;;;;;;;4.18;2.47;;;;;;;19.11;45.89;101168.28;5007220;28;20046;-61
2022/05/11 01:02:37;;;;;;;3.85;2.42;;;;;;;19.09;46.28;101169.72;5010073;28;20060;-61
2022/05/11 01:05:06;;;;;;;4.93;2.38;;;;;;;19.07;46.50;101164.41;5007728;28;20133;-61
2022/05/11 01:07:31;;;;;;;8.63;2.80;;;;;;;19.09;46.42;101158.47;5009132;28;20036;-61
2022/05/11 01:09:57;;;;;;;3.08;2.38;;;;;;;19.06;46.44;101157.13;5011376;28;20037;-61
2022/05/11 01:12:29;;;;;;;4.82;2.50;;;;;;;19.06;46.24;101153.44;5009800;28;20027;-61
2022/05/11 01:15:00;;;;;;;5.18;2.25;;;;;;;19.06;46.67;101145.00;5009836;28;20440;-61
2022/05/11 01:17:26;;;;;;;6.55;2.40;;;;;;;19.06;46.45;101154.31;5009826;28;20021;-61
2022/05/11 01:19:53;;;;;;;2.63;2.03;;;;;;;19.09;46.37;101150.03;5010854;28;20109;-61
2022/05/11 01:22:36;;;;;;;3.22;2.10;;;;;;;19.05;46.54;101146.16;5011662;28;20057;-61
2022/05/11 01:25:05;;;;;;;4.43;2.25;;;;;;;19.08;46.36;101148.38;5011502;28;20064;-61
2022/05/11 01:27:36;;;;;;;4.72;2.13;;;;;;;19.02;46.96;101141.13;5008666;28;20041;-61
2022/05/11 01:30:14;;;;;;;3.70;2.20;;;;;;;19.09;47.11;101138.78;5010428;28;20060;-61
2022/05/11 01:32:42;;;;;;;3.15;2.10;;;;;;;19.00;47.31;101137.78;5009609;28;20121;-61
2022/05/11 01:35:27;;;;;;;6.43;2.10;;;;;;;19.04;46.81;101136.03;5009623;28;20129;-61
2022/05/11 01:38:17;;;;;;;4.15;2.10;;;;;;;19.06;47.00;101133.75;5010190;28;20037;-61
2022/05/11 01:40:42;;;;;;;4.63;1.85;;;;;;;18.98;47.30;101140.91;4996336;28;20036;-61
2022/05/11 01:43:15;;;;;;;3.80;2.03;;;;;;;19.00;47.25;101137.78;5010356;28;20030;-61
2022/05/11 01:45:41;;;;;;;6.72;2.75;;;;;;;18.98;47.24;101145.69;5011436;28;20026;-61
2022/05/11 01:48:06;;;;;;;3.15;2.10;;;;;;;18.94;47.37;101139.81;5012295;28;20535;-61
2022/05/11 01:50:31;;;;;;;6.25;2.53;;;;;;;18.95;47.26;101137.88;5015013;28;20022;-62
2022/05/11 01:52:56;;;;;;;5.10;2.35;;;;;;;18.97;47.38;101132.78;5014155;28;20535;-61
2022/05/11 01:55:22;;;;;;;4.57;2.40;;;;;;;18.94;47.26;101136.19;5012606;28;20030;-61
2022/05/11 01:57:47;;;;;;;5.22;2.63;;;;;;;18.95;47.15;101135.06;5017638;28;20042;-61
2022/05/11 02:00:13;;;;;;;5.47;2.45;;;;;;;18.94;47.32;101134.19;5014842;28;20030;-61
2022/05/11 02:02:38;;;;;;;3.75;2.28;;;;;;;18.96;47.35;101131.09;5013939;28;20030;-61
2022/05/11 02:07:49;;;;;;;2.95;2.28;;;;;;;18.86;47.29;101132.94;5013756;28;20036;-61
2022/05/11 02:10:16;;;;;;;4.22;2.40;;;;;;;18.92;47.32;101130.03;5013299;28;20029;-62
2022/05/11 02:12:41;;;;;;;5.53;2.65;;;;;;;18.93;47.12;101126.06;5024845;28;20041;-61
2022/05/11 02:15:08;;;;;;;2.35;2.15;;;;;;;18.84;47.28;101126.75;5013020;28;20041;-61
2022/05/11 02:17:33;;;;;;;4.70;2.42;;;;;;;18.81;47.82;101118.91;5012364;28;20481;-61
2022/05/11 02:19:58;;;;;;;4.13;2.50;;;;;;;18.85;47.31;101124.78;5013746;28;20079;-61
2022/05/11 02:22:24;;;;;;;6.43;2.20;;;;;;;18.86;47.29;101126.44;5011810;28;20036;-61
2022/05/11 02:24:49;;;;;;;4.80;2.20;;;;;;;18.86;47.32;101116.06;5013987;28;20508;-61
2022/05/11 02:27:14;;;;;;;6.05;2.33;;;;;;;18.85;47.51;101119.16;5011909;28;20044;-61
2022/05/11 02:29:40;;;;;;;4.20;2.13;;;;;;;18.78;47.81;101122.31;5013239;28;20478;-61
2022/05/11 02:32:05;;;;;;;8.23;2.92;;;;;;;18.74;47.72;101118.44;5017547;28;20072;-61
2022/05/11 02:37:14;;;;;;;6.28;2.47;;;;;;;18.69;48.22;101115.69;5011552;28;20116;-61
2022/05/11 02:39:39;;;;;;;4.40;2.30;;;;;;;18.74;47.90;101111.97;5013191;28;20462;-61
2022/05/11 02:42:05;;;;;;;5.68;2.70;;;;;;;18.69;47.87;101115.69;5012941;28;20121;-61
2022/05/11 02:44:33;;;;;;;4.30;2.60;;;;;;;18.74;47.88;101121.25;5015026;28;20033;-62
2022/05/11 02:46:58;;;;;;;3.95;2.40;;;;;;;18.74;47.81;101112.81;5019105;28;20038;-61
2022/05/11 02:49:24;;;;;;;5.13;2.45;;;;;;;18.70;47.75;101114.56;5013229;28;20040;-61
2022/05/11 02:51:49;;;;;;;6.38;2.45;;;;;;;18.74;47.75;101114.78;5013450;28;20037;-61
2022/05/11 02:54:14;;;;;;;5.03;2.50;;;;;;;18.71;47.88;101116.25;5014028;28;20022;-61
2022/05/11 02:56:41;;;;;;;2.70;2.10;;;;;;;18.74;47.96;101115.63;5013112;28;20037;-61
2022/05/11 02:59:06;;;;;;;3.53;2.25;;;;;;;18.73;47.79;101108.34;5012454;28;20026;-61
2022/05/11 03:01:34;;;;;;;3.08;2.08;;;;;;;18.64;48.12;101101.69;5012919;28;20045;-61
2022/05/11 03:03:59;;;;;;;3.55;2.40;;;;;;;18.60;48.14;101117.50;5009714;28;20034;-61
2022/05/11 03:06:25;;;;;;;2.97;2.20;;;;;;;18.61;48.25;101113.53;5011193;28;20049;-61
2022/05/11 03:08:50;;;;;;;4.18;2.22;;;;;;;18.67;47.88;101108.66;5023857;28;20033;-61
2022/05/11 03:11:16;;;;;;;2.75;2.10;;;;;;;18.61;48.08;101099.47;5012061;28;20480;-61
2022/05/11 03:13:41;;;;;;;2.10;1.83;;;;;;;18.63;48.07;101098.03;5011660;28;20021;-61
2022/05/11 03:16:06;;;;;;;5.28;2.72;;;;;;;18.59;48.40;101091.34;5012389;28;20044;-61
2022/05/11 03:18:32;;;;;;;5.22;2.17;;;;;;;18.60;48.35;101084.59;5010974;28;20401;-61
2022/05/11 03:20:58;;;;;;;3.50;2.35;;;;;;;18.60;48.15;101095.00;5009979;28;20112;-61
2022/05/11 03:23:25;;;;;;;4.70;2.10;;;;;;;18.60;48.27;101097.81;5011003;28;20049;-61
2022/05/11 03:25:54;;;;;;;2.45;2.25;;;;;;;18.51;48.59;101092.03;5012473;28;20032;-61
2022/05/11 03:28:20;;;;;;;4.45;2.40;;;;;;;18.59;48.34;101082.91;5011236;28;20042;-61
2022/05/11 03:30:45;;;;;;;4.97;2.60;;;;;;;18.52;48.48;101076.00;5012003;28;20112;-61
2022/05/11 03:35:58;;;;;;;4.00;2.20;;;;;;;18.58;48.58;101074.78;5010611;28;20582;-61
2022/05/11 03:38:23;;;;;;;5.53;2.30;;;;;;;18.50;48.70;101072.63;5012039;28;20120;-61
2022/05/11 03:40:48;;;;;;;4.53;2.28;;;;;;;18.51;48.61;101075.16;5008304;28;20504;-61
2022/05/11 03:43:13;;;;;;;5.30;2.15;;;;;;;18.55;48.26;101079.03;5011431;28;20029;-62
2022/05/11 03:45:39;;;;;;;4.68;2.47;;;;;;;18.52;48.68;101073.19;5011912;28;20060;-61
2022/05/11 03:48:05;;;;;;;2.97;2.25;;;;;;;18.54;48.36;101071.72;5011552;28;20034;-61
2022/05/11 03:50:32;;;;;;;3.50;2.10;;;;;;;18.46;48.52;101061.16;5010455;28;20496;-61
2022/05/11 03:52:58;;;;;;;7.28;2.10;;;;;;;18.48;48.57;101066.50;5012231;28;20041;-61
2022/05/11 03:55:24;;;;;;;5.18;2.42;;;;;;;18.49;48.78;101060.56;5015559;28;20029;-61
2022/05/11 03:57:50;;;;;;;4.63;2.30;;;;;;;18.45;48.66;101064.28;5012974;28;20544;-61
2022/05/11 04:00:21;;;;;;;4.45;2.38;;;;;;;18.42;48.79;101067.69;5010741;28;20042;-62
2022/05/11 04:02:51;;;;;;;2.92;2.33;;;;;;;18.39;48.97;101072.78;5009076;28;20037;-61
2022/05/11 04:05:18;;;;;;;4.65;2.30;;;;;;;18.38;49.00;101062.66;5011078;28;20026;-61
2022/05/11 04:07:43;;;;;;;3.75;2.08;;;;;;;18.39;49.02;101064.34;5009677;28;20065;-61
2022/05/11 04:10:14;;;;;;;5.35;2.60;;;;;;;18.43;48.84;101069.34;5015271;28;20068;-61
2022/05/11 04:12:39;;;;;;;2.55;2.13;;;;;;;18.38;48.94;101062.66;5010749;28;20089;-61
2022/05/11 04:15:06;;;;;;;4.30;2.08;;;;;;;18.37;48.99;101055.38;5011702;28;20065;-61
2022/05/11 04:17:31;;;;;;;8.23;2.20;;;;;;;18.30;49.15;101056.88;5010292;28;20055;-61
2022/05/11 04:19:57;;;;;;;4.03;2.60;;;;;;;18.24;49.39;101058.91;5009398;28;20021;-61
2022/05/11 04:22:22;;;;;;;2.20;1.80;;;;;;;18.26;49.30;101056.63;5009644;28;20156;-61
2022/05/11 04:24:47;;;;;;;4.50;2.10;;;;;;;18.25;49.44;101051.31;5012220;28;20389;-61
2022/05/11 04:27:13;;;;;;;4.65;2.05;;;;;;;18.25;49.30;101063.41;5010606;28;20092;-61
2022/05/11 04:29:39;;;;;;;3.42;2.20;;;;;;;18.30;49.49;101065.31;5011434;28;20026;-61
2022/05/11 04:32:05;;;;;;;5.43;2.08;;;;;;;18.22;49.65;101066.78;5010132;28;20025;-61
2022/05/11 04:34:30;;;;;;;2.70;1.85;;;;;;;18.26;49.62;101058.59;5007141;28;20058;-61
2022/05/11 04:36:55;;;;;;;3.13;2.17;;;;;;;18.13;50.20;101057.38;5009279;28;20096;-61
2022/05/11 04:39:27;;;;;;;3.88;1.83;;;;;;;18.18;49.84;101057.28;5013377;28;20491;-61
2022/05/11 04:41:52;;;;;;;2.17;1.90;;;;;;;18.16;49.80;101068.00;5019243;28;20473;-61
2022/05/11 04:44:17;;;;;;;4.60;2.15;;;;;;;18.11;50.00;101062.44;5015572;28;20036;-61
2022/05/11 04:46:46;;;;;;;3.05;2.15;;;;;;;18.11;50.04;101068.03;5009179;28;20045;-61
2022/05/11 04:49:17;;;;;;;4.45;2.13;;;;;;;18.04;50.25;101070.41;5011251;28;20045;-60
2022/05/11 04:51:50;;;;;;;5.00;2.33;;;;;;;18.11;50.54;101070.84;5008792;28;20034;-61
2022/05/11 04:54:17;;;;;;;2.17;1.98;;;;;;;18.14;50.18;101070.25;5009458;28;20148;-61
2022/05/11 04:56:42;;;;;;;6.70;2.20;;;;;;;18.11;50.25;101062.44;5010096;28;21222;-61
2022/05/11 04:59:08;;;;;;;4.78;2.22;;;;;;;18.10;50.50;101066.38;5010247;28;20029;-61
2022/05/11 05:01:36;;;;;;;2.42;2.22;;;;;;;18.12;50.19;101062.16;5011285;28;20056;-61
2022/05/11 05:04:01;;;;;;;3.50;2.05;;;;;;;18.13;50.36;101063.81;5008357;28;20037;-61
2022/05/11 05:06:33;;;;;;;2.97;1.90;;;;;;;18.11;50.31;101068.88;5008783;28;20080;-61
2022/05/11 05:09:04;;;;;;;2.88;2.42;;;;;;;18.11;50.55;101062.44;5009129;28;20030;-61
2022/05/11 05:11:30;;;;;;;4.57;2.53;;;;;;;18.04;50.53;101051.56;5005629;28;20071;-61
2022/05/11 05:13:55;;;;;;;6.68;2.40;;;;;;;18.13;50.33;101068.59;5008460;28;20074;-61
2022/05/11 05:16:23;;;;;;;6.55;2.60;;;;;;;18.08;50.47;101063.88;5009917;28;20073;-61
2022/05/11 05:18:49;;;;;;;2.50;2.20;;;;;;;18.05;50.69;101067.28;5009053;28;20029;-61
2022/05/11 05:21:15;;;;;;;6.07;2.70;;;;;;;18.04;50.69;101070.41;5011218;28;20080;-61
2022/05/11 05:23:40;;;;;;;4.78;2.80;;;;;;;18.05;50.79;101072.06;5007600;28;20033;-61
2022/05/11 05:26:05;;;;;;;3.55;2.40;;;;;;;18.12;50.60;101072.56;5008560;28;20037;-61
2022/05/11 05:31:17;;;;;;;6.50;2.90;;;;;;;18.06;51.00;101082.16;5007635;28;20056;-61
2022/05/11 05:33:43;;;;;;;5.40;3.00;;;;;;;18.13;50.87;101083.47;5006756;28;20038;-60
2022/05/11 05:36:09;;;;;;;5.28;2.47;;;;;;;18.16;50.61;101093.28;5006846;28;20033;-61
2022/05/11 05:38:38;;;;;;;4.50;2.95;;;;;;;18.17;50.68;101080.91;5007361;28;20029;-60
2022/05/11 05:41:03;;;;;;;8.50;3.03;;;;;;;18.16;50.53;101082.06;5009590;28;20427;-60
2022/05/11 05:43:28;;;;;;;5.53;2.88;;;;;;;18.25;50.42;101085.88;5010748;28;20026;-60
2022/05/11 05:45:57;;;;;;;6.38;2.70;;;;;;;18.29;50.63;101088.91;5005947;28;20049;-60
2022/05/11 05:48:23;;;;;;;5.60;2.63;;;;;;;18.36;50.63;101078.16;5008105;28;20481;-60
2022/05/11 05:50:49;;;;;;;5.30;2.65;;;;;;;18.36;50.13;101083.78;5024759;28;20028;-60
2022/05/11 05:53:19;;;;;;;4.32;2.90;;;;;;;18.38;50.25;101082.31;5001303;28;20030;-62
2022/05/11 05:55:49;;;;;;;9.80;2.70;;;;;;;18.47;49.79;101076.91;5006897;28;20022;-61
2022/05/11 05:58:15;;;;;;;3.83;2.35;;;;;;;18.56;49.23;101082.69;5009959;28;20394;-62
2022/05/11 06:00:41;;;;;;;5.45;2.53;;;;;;;18.60;49.22;101086.56;5008217;28;20037;-61
2022/05/11 06:03:06;;;;;;;3.92;2.03;;;;;;;18.63;49.00;101086.81;5005897;28;20029;-62
2022/05/11 06:05:31;;;;;;;2.50;1.90;;;;;;;18.71;48.84;101090.13;5005725;28;20034;-62
2022/05/11 06:07:57;;;;;;;3.85;2.22;;;;;;;18.77;48.54;101091.69;5000669;28;20050;-61
2022/05/11 06:10:26;;;;;;;3.67;2.00;;;;;;;18.85;48.21;101088.22;5005435;28;20026;-60
2022/05/11 06:12:52;;;;;;;4.70;2.20;;;;;;;18.85;48.04;101074.97;5005782;28;20030;-61
2022/05/11 06:15:18;;;;;;;6.88;1.98;;;;;;;18.97;47.49;101082.13;5006545;28;20038;-62
2022/05/11 06:17:46;;;;;;;3.80;1.60;;;;;;;18.97;47.19;101082.13;5001859;28;20040;-61
2022/05/11 06:20:12;;;;;;;4.43;2.03;;;;;;;18.87;47.18;101083.97;5000554;28;20113;-61
2022/05/11 06:22:38;;;;;;;4.07;1.90;;;;;;;18.97;47.19;101076.50;5003120;28;20030;-62
2022/05/11 06:25:04;;;;;;;4.68;2.03;;;;;;;19.01;46.77;101071.94;5000839;28;20044;-62
2022/05/11 06:27:30;;;;;;;9.27;1.95;;;;;;;19.05;46.40;101068.22;5003253;28;20034;-62
2022/05/11 06:29:58;;;;;;;6.38;1.75;;;;;;;19.06;45.78;101069.91;5005890;28;20129;-60
2022/05/11 06:32:24;;;;;;;4.18;1.88;;;;;;;19.12;45.75;101065.03;5006238;28;20038;-61
2022/05/11 06:34:51;;;;;;;4.45;1.70;;;;;;;19.30;45.61;101068.97;5009719;28;20029;-61
2022/05/11 06:37:16;;;;;;;7.28;1.92;;;;;;;19.40;45.54;101070.75;5011155;28;20021;-61
2022/05/11 06:39:42;;;;;;;7.00;2.03;;;;;;;19.38;45.27;101071.91;5007906;28;21604;-61
2022/05/11 06:42:09;;;;;;;10.73;1.65;;;;;;;19.46;45.07;101070.38;5009284;28;20038;-61
2022/05/11 06:44:34;;;;;;;7.22;1.70;;;;;;;19.54;45.57;101064.03;5011184;28;20038;-61
2022/05/11 06:47:03;;;;;;;8.00;1.85;;;;;;;19.61;45.06;101066.47;5012210;28;20030;-61
2022/05/11 06:49:29;;;;;;;8.00;2.30;;;;;;;19.66;44.64;101063.59;5011947;28;20030;-60
2022/05/11 06:51:54;;;;;;;4.82;1.73;;;;;;;19.69;44.57;101062.97;5008184;28;20053;-61
2022/05/11 06:59:47;;;;;;;5.50;1.90;;;;;;;19.78;44.23;101065.91;5005378;28;20041;-59
2022/05/11 07:02:12;;;;;;;3.28;1.80;;;;;;;19.89;44.32;101073.03;5007768;28;20026;-62
2022/05/11 07:04:38;;;;;;;6.97;2.30;;;;;;;19.85;44.20;101061.53;5007366;28;20030;-61
2022/05/11 07:07:07;;;;;;;3.88;1.67;;;;;;;19.92;44.24;101061.13;5004868;28;20520;-61
2022/05/11 07:09:34;;;;;;;5.43;2.00;;;;;;;19.94;44.11;101067.28;5010359;28;20038;-60
2022/05/11 07:12:20;;;;;;;6.35;2.15;;;;;;;20.04;44.22;101067.09;5015830;28;20052;-61
2022/05/11 07:14:57;;;;;;;7.10;2.28;;;;;;;20.12;44.14;101071.16;5007496;28;20040;-60
2022/05/11 07:17:31;;;;;;;5.30;1.90;;;;;;;20.04;43.98;101072.72;5009384;28;20050;-60
2022/05/11 07:20:01;;;;;;;5.35;2.17;;;;;;;20.11;44.21;101073.13;5011698;28;20164;-60
2022/05/11 07:22:26;;;;;;;6.43;2.33;;;;;;;20.14;43.77;101062.41;5012220;28;20030;-60
2022/05/11 07:24:55;;;;;;;4.35;2.20;;;;;;;20.14;43.80;101066.06;5011251;28;20034;-60
2022/05/11 07:27:21;;;;;;;6.68;2.33;;;;;;;20.26;43.81;101065.53;5007592;28;20030;-61
2022/05/11 07:29:48;;;;;;;11.23;2.63;;;;;;;20.33;43.74;101063.97;5007142;28;20034;-60
2022/05/11 07:32:16;;;;;;;5.93;2.05;;;;;;;20.38;42.89;101070.63;5006496;28;20062;-61
2022/05/11 07:34:41;;;;;;;7.63;2.05;;;;;;;20.29;42.72;101062.91;5010968;28;20125;-61
2022/05/11 07:37:07;;;;;;;9.18;2.13;;;;;;;20.28;42.74;101071.69;5012094;28;20161;-61
2022/05/11 07:39:32;;;;;;;6.18;2.00;;;;;;;20.24;42.40;101063.03;5010854;28;20034;-61
2022/05/11 07:41:58;;;;;;;7.88;1.95;;;;;;;20.44;42.25;101063.75;5011294;28;20061;-61
2022/05/11 07:44:24;;;;;;;7.45;2.15;;;;;;;20.50;42.67;101068.16;5011584;28;20105;-60
2022/05/11 07:46:51;;;;;;;4.20;1.73;;;;;;;20.49;41.19;101067.31;5010193;28;20208;-61
2022/05/11 07:49:18;;;;;;;6.18;1.85;;;;;;;20.47;41.25;101063.09;5008665;28;20383;-61
2022/05/11 07:51:45;;;;;;;13.23;2.45;;;;;;;20.45;41.16;101069.06;5008139;28;20101;-60
2022/05/11 07:54:10;;;;;;;8.95;2.10;;;;;;;20.49;41.38;101072.97;5006856;28;20036;-60
2022/05/11 08:02:03;;;;;;;5.65;1.88;;;;;;;20.51;41.26;101069.81;5006598;28;20460;-61
2022/05/11 08:04:28;;;;;;;6.95;2.30;;;;;;;20.56;41.22;101075.38;5001538;28;20026;-61
2022/05/11 08:06:54;;;;;;;6.45;1.95;;;;;;;20.67;41.29;101070.31;5002996;28;20037;-60
2022/05/11 08:09:19;;;;;;;7.80;2.10;;;;;;;20.72;41.41;101081.50;5009800;28;20137;-61
2022/05/11 08:11:47;;;;;;;7.13;2.40;;;;;;;20.69;41.32;101082.97;5006445;28;20079;-61
2022/05/11 08:14:14;;;;;;;4.72;1.80;;;;;;;20.75;41.10;101072.38;5010489;28;20033;-61
2022/05/11 08:16:39;;;;;;;7.82;1.98;;;;;;;20.81;40.77;101073.97;5007058;28;20384;-61
2022/05/11 08:19:04;;;;;;;7.93;2.40;;;;;;;20.73;40.66;101071.88;5003761;28;20097;-60
2022/05/11 08:21:29;;;;;;;6.97;2.08;;;;;;;20.75;40.93;101075.22;5002546;28;20084;-60
2022/05/11 08:23:55;;;;;;;7.68;1.88;;;;;;;20.73;41.06;101072.72;5011125;28;20037;-60
2022/05/11 08:26:20;;;;;;;5.88;2.13;;;;;;;20.80;40.59;101073.13;5010115;28;20057;-60
2022/05/11 08:28:45;;;;;;;7.85;2.00;;;;;;;20.90;40.68;101069.22;5009799;28;20401;-60
2022/05/11 08:33:54;;;;;;;7.18;2.28;;;;;;;21.02;40.12;101063.84;5009938;28;20113;-61
2022/05/11 08:36:26;;;;;;;7.22;2.53;;;;;;;21.09;40.00;101058.59;5009964;28;20444;-60
2022/05/11 08:39:04;;;;;;;4.82;2.08;;;;;;;21.26;40.49;101059.91;5007328;28;20096;-60
2022/05/11 08:41:33;;;;;;;7.68;2.33;;;;;;;21.30;39.79;101064.59;5007885;28;20036;-60
2022/05/11 08:44:07;;;;;;;4.72;1.90;;;;;;;21.42;39.89;101063.19;5008379;28;20061;-60
2022/05/11 08:46:38;;;;;;;8.43;2.15;;;;;;;21.46;39.25;101072.72;5009971;28;20037;-60
2022/05/11 08:49:21;;;;;;;9.00;2.20;;;;;;;21.55;39.19;101057.50;5008394;28;20381;-60
2022/05/11 08:52:03;;;;;;;;;;;;;;;21.73;40.43;101066.06;5000840;28;20885;-61
2022/05/11 08:54:40;;;;;;;8.35;2.38;;;;;;;21.70;39.51;101056.28;4993942;28;20296;-61
2022/05/11 08:57:25;;;;;;;7.28;2.65;;;;;;;21.80;40.00;101061.63;5011494;28;20133;-60
2022/05/11 08:59:57;;;;;;;5.78;2.42;;;;;;;21.81;39.42;101066.16;5009327;28;20056;-60
2022/05/11 09:02:34;;;;;;;7.32;2.40;;;;;;;21.89;39.22;101066.50;5011380;28;20108;-61
2022/05/11 09:05:01;;;;;;;5.72;2.20;;;;;;;21.81;39.20;101068.97;5006163;28;20031;-60
2022/05/11 09:07:30;;;;;;;7.35;2.60;;;;;;;21.85;38.99;101063.50;5008879;28;20037;-60
2022/05/11 09:09:56;;;;;;;6.07;2.55;;;;;;;21.85;39.00;101052.22;5009258;28;20065;-61
2022/05/11 09:15:10;;;;;;;9.38;2.80;;;;;;;21.90;39.35;101048.41;4997716;28;20030;-61
2022/05/11 09:17:39;;;;;;;9.73;2.70;;;;;;;21.86;39.22;101048.22;5008552;28;20077;-60
2022/05/11 09:20:10;;;;;;;7.90;2.63;;;;;;;21.85;39.16;101051.34;4997533;28;20121;-61
2022/05/11 09:22:58;;;;;;;6.63;2.53;;;;;;;21.73;39.35;101047.16;5004140;28;20386;-61
2022/05/11 09:25:28;;;;;;;6.22;2.72;;;;;;;21.65;39.41;101036.59;5008838;28;20034;-60
2022/05/11 09:28:26;;;;;;;4.90;2.33;;;;;;;21.87;39.98;101043.38;4996345;28;20037;-61
2022/05/11 09:31:03;;;;;;;8.85;2.47;;;;;;;22.07;39.62;101054.13;5003331;28;20062;-61
2022/05/11 09:33:32;;;;;;;9.93;2.67;;;;;;;22.08;39.38;101041.66;5008027;28;20505;-61
2022/05/11 09:36:02;;;;;;;8.38;2.70;;;;;;;22.22;38.88;101033.09;5003088;28;20113;-61
2022/05/11 09:38:46;;;;;;;8.75;2.40;;;;;;;22.19;39.66;101045.06;5002723;28;20069;-61
2022/05/11 09:41:17;;;;;;;7.25;2.47;;;;;;;22.08;39.39;101036.00;5008859;28;20477;-61
2022/05/11 09:43:51;;;;;;;7.88;2.47;;;;;;;22.09;39.59;101032.03;5003913;28;20053;-61
2022/05/11 09:46:30;;;;;;;9.50;2.35;;;;;;;22.10;39.39;101045.00;5009178;28;20037;-61
2022/05/11 09:49:10;;;;;;;7.63;2.63;;;;;;;22.05;39.83;101033.84;5010669;28;20025;-61
2022/05/11 09:51:38;;;;;;;8.85;2.50;;;;;;;22.16;39.34;101032.41;5009172;28;20409;-61
2022/05/11 09:54:32;;;;;;;9.38;2.80;;;;;;;22.30;39.61;101030.28;5009281;28;20034;-61
2022/05/11 09:57:03;;;;;;;5.40;2.10;;;;;;;22.36;39.26;101027.31;5009023;28;20026;-61
2022/05/11 09:59:49;;;;;;;10.13;2.42;;;;;;;22.34;39.24;101030.47;5006396;28;20389;-60
2022/05/11 10:02:32;;;;;;;9.52;3.05;;;;;;;22.43;39.00;101016.34;5009003;28;20129;-61
2022/05/11 10:05:03;;;;;;;8.32;2.75;;;;;;;22.46;39.35;101018.53;5004041;28;20030;-61
2022/05/11 10:07:49;;;;;;;8.68;2.58;;;;;;;22.56;38.79;101021.06;5008234;28;20929;-61
2022/05/11 10:10:28;;;;;;;8.48;2.58;;;;;;;22.59;39.42;101022.38;5001972;28;20029;-61
2022/05/11 10:12:58;;;;;;;7.75;2.70;;;;;;;22.54;39.59;101024.19;5014162;28;20034;-61
2022/05/11 10:24:28;;;;;;;7.95;3.00;;;;;;;22.59;39.35;101020.38;5007940;28;20040;-61
2022/05/11 10:27:22;;;;;;;6.82;2.60;;;;;;;22.58;39.08;101007.38;5012847;28;20045;-61
2022/05/11 10:30:10;;;;;;;5.93;2.90;;;;;;;22.54;39.22;101012.88;4965285;28;20366;-61
2022/05/11 10:33:09;;;;;;;6.47;2.60;;;;;;;22.54;39.27;101001.56;5010149;28;20033;-61
2022/05/11 10:36:08;;;;;;;6.25;2.50;;;;;;;22.66;39.86;101008.56;5007408;28;20037;-61
2022/05/11 10:38:45;;;;;;;10.70;2.80;;;;;;;22.64;39.44;100994.75;5009611;28;20037;-62
2022/05/11 10:41:38;;;;;;;5.22;2.30;;;;;;;22.76;39.08;100975.13;5009242;28;20034;-61
2022/05/11 10:44:24;;;;;;;6.65;2.40;;;;;;;22.82;39.72;100995.59;5010466;28;20068;-61
2022/05/11 10:47:34;;;;;;;7.03;2.47;;;;;;;22.91;38.72;100988.00;5011839;28;20091;-62
2022/05/11 10:50:22;;;;;;;8.50;2.58;;;;;;;22.91;38.78;100985.16;4984785;28;20121;-61
2022/05/11 10:53:30;;;;;;;8.68;2.55;;;;;;;22.91;38.06;100981.47;5012034;28;20110;-62
2022/05/11 10:56:19;;;;;;;10.40;3.10;;;;;;;22.88;38.48;100990.63;5000864;28;20042;-62
2022/05/11 10:58:59;;;;;;;7.45;3.13;;;;;;;22.98;38.97;100991.13;5013118;28;20068;-61
2022/05/11 11:01:32;;;;;;;8.02;2.83;;;;;;;23.06;38.75;100974.47;5007184;28;20750;-61
2022/05/11 11:04:13;;;;;;;7.07;2.20;;;;;;;23.13;38.46;100981.28;5011355;28;20029;-61
2022/05/11 11:07:13;;;;;;;5.67;2.30;;;;;;;23.24;38.26;100978.94;5012725;28;20018;-63
2022/05/11 11:10:06;;;;;;;7.82;2.47;;;;;;;23.30;38.20;100976.75;5011057;28;20030;-61
2022/05/11 11:12:59;;;;;;;10.63;2.38;;;;;;;23.40;38.02;100968.75;5007383;28;20029;-63
2022/05/11 11:15:28;;;;;;;3.88;2.20;;;;;;;23.41;36.83;100973.25;5008268;28;20062;-63
2022/05/11 11:17:55;;;;;;;9.15;2.90;;;;;;;23.46;37.23;100964.59;5004247;28;20041;-63
2022/05/11 11:20:21;;;;;;;10.07;2.63;;;;;;;23.48;38.19;100972.72;5001332;28;20048;-63
2022/05/11 11:23:02;;;;;;;9.15;2.70;;;;;;;23.53;37.85;100967.69;5010844;28;20026;-63
2022/05/11 11:25:41;;;;;;;7.55;2.78;;;;;;;23.55;37.54;100961.72;5009889;28;20160;-62
2022/05/11 11:28:10;;;;;;;5.35;2.22;;;;;;;23.55;36.83;100960.88;5011625;28;20127;-61
2022/05/11 11:30:37;;;;;;;5.90;2.50;;;;;;;23.60;37.00;100950.19;5007213;28;20135;-62
2022/05/11 11:33:12;;;;;;;7.43;2.50;;;;;;;23.59;36.45;100962.69;5008204;28;20038;-62
2022/05/11 11:36:26;;;;;;;9.75;2.58;;;;;;;23.56;37.07;100948.38;5010564;28;20033;-62
2022/05/11 11:38:53;;;;;;;7.35;2.28;;;;;;;23.61;35.67;100940.50;5001891;28;20444;-63
2022/05/11 11:41:30;;;;;;;6.20;2.60;;;;;;;23.63;35.93;100949.50;5010600;28;20025;-63
2022/05/11 11:43:59;;;;;;;6.00;2.50;;;;;;;23.65;36.25;100944.31;5011814;28;20038;-63
2022/05/11 11:46:30;;;;;;;7.25;2.25;;;;;;;23.72;36.73;100936.16;5009275;28;20088;-63
2022/05/11 11:49:07;;;;;;;7.90;2.10;;;;;;;23.80;35.75;100934.47;5003658;28;20042;-63
2022/05/11 11:51:53;;;;;;;7.15;2.30;;;;;;;23.85;35.54;100939.94;4995286;28;20026;-62
2022/05/11 11:54:48;;;;;;;4.68;2.22;;;;;;;23.95;35.74;100939.56;5006978;28;20029;-61
2022/05/11 11:57:16;;;;;;;5.40;1.88;;;;;;;23.94;34.80;100935.06;5011773;28;20388;-62
2022/05/11 11:59:49;;;;;;;10.35;2.33;;;;;;;24.00;35.79;100927.19;5009997;28;20054;-61
2022/05/11 12:02:24;;;;;;;6.95;1.98;;;;;;;24.03;35.94;100928.53;5010457;28;20049;-62
2022/05/11 12:05:23;;;;;;;6.30;2.10;;;;;;;24.05;34.47;100918.50;5007998;28;20159;-62
2022/05/11 12:16:58;;;;;;;7.32;2.45;;;;;;;24.16;34.64;100908.41;5011338;28;20440;-61
2022/05/11 12:19:29;;;;;;;6.53;2.20;;;;;;;24.17;34.11;100912.91;5002458;28;20112;-62
2022/05/11 12:22:14;;;;;;;5.28;2.05;;;;;;;24.22;34.30;100901.38;5007611;28;20485;-61
2022/05/11 12:24:56;;;;;;;5.75;2.10;;;;;;;24.22;34.39;100904.19;5008042;28;20026;-61